createdAt,value
2018-05-19T00:00:10.033Z,9.50
2018-05-19T00:02:38.313Z,8.70
2018-05-19T00:05:06.603Z,11.50
2018-05-19T00:07:35.205Z,6.90
2018-05-19T00:10:03.782Z,11.27
2018-05-19T00:12:32.070Z,7.07
2018-05-19T00:15:00.399Z,7.40
2018-05-19T00:17:28.682Z,9.57
2018-05-19T00:19:56.974Z,10.47
2018-05-19T00:22:25.273Z,8.80
2018-05-19T00:24:53.581Z,10.57
2018-05-19T00:27:21.865Z,13.23
2018-05-19T00:29:50.154Z,9.07
2018-05-19T00:32:18.445Z,8.10
2018-05-19T00:34:46.722Z,9.00
2018-05-19T00:37:15.336Z,12.93
2018-05-19T00:39:43.633Z,8.27
2018-05-19T00:42:12.605Z,8.50
2018-05-19T00:44:40.883Z,9.80
2018-05-19T00:47:09.211Z,9.10
2018-05-19T00:49:37.493Z,10.37
2018-05-19T00:52:05.808Z,11.23
2018-05-19T00:54:46.047Z,12.53
2018-05-19T00:57:14.337Z,12.23
2018-05-19T00:59:42.621Z,13.83
2018-05-19T01:02:11.218Z,14.53
2018-05-19T01:04:39.898Z,14.23
2018-05-19T01:07:08.251Z,11.93
2018-05-19T01:09:36.546Z,12.07
2018-05-19T01:12:04.861Z,11.77
2018-05-19T01:14:33.178Z,14.80
2018-05-19T01:17:01.469Z,12.63
2018-05-19T01:19:29.818Z,14.70
2018-05-19T01:21:58.107Z,14.57
2018-05-19T01:24:26.394Z,12.30
2018-05-19T01:26:54.713Z,14.00
2018-05-19T01:29:23.002Z,13.13
2018-05-19T01:31:51.281Z,14.27
2018-05-19T01:34:19.581Z,11.90
2018-05-19T01:36:47.883Z,16.90
2018-05-19T01:39:16.233Z,11.20
2018-05-19T01:41:44.623Z,12.50
2018-05-19T01:44:12.916Z,12.30
2018-05-19T01:46:41.226Z,11.13
2018-05-19T01:49:09.508Z,11.23
2018-05-19T01:51:37.823Z,10.40
2018-05-19T01:54:06.145Z,9.80
2018-05-19T01:56:35.118Z,10.87
2018-05-19T01:59:03.434Z,12.23
2018-05-19T02:01:31.745Z,10.07
2018-05-19T02:04:00.049Z,10.00
2018-05-19T02:06:28.336Z,10.63
2018-05-19T02:08:57.053Z,11.20
2018-05-19T02:11:25.411Z,13.03
2018-05-19T02:13:53.733Z,11.17
2018-05-19T02:16:22.077Z,12.60
2018-05-19T02:18:50.361Z,10.80
2018-05-19T02:21:18.641Z,10.77
2018-05-19T02:23:47.290Z,11.73
2018-05-19T02:26:15.997Z,11.40
2018-05-19T02:28:44.699Z,12.30
2018-05-19T02:31:13.024Z,11.33
2018-05-19T02:33:41.384Z,12.83
2018-05-19T02:36:09.774Z,11.20
2018-05-19T02:38:38.077Z,13.27
2018-05-19T02:41:06.762Z,14.97
2018-05-19T02:43:35.076Z,11.83
2018-05-19T02:46:03.359Z,13.33
2018-05-19T02:48:31.644Z,14.43
2018-05-19T02:50:59.967Z,13.53
2018-05-19T02:53:28.270Z,13.73
2018-05-19T02:55:56.573Z,15.70
2018-05-19T02:58:24.894Z,13.70
2018-05-19T03:00:53.178Z,13.73
2018-05-19T03:03:21.866Z,14.60
2018-05-19T03:05:50.595Z,13.67
2018-05-19T03:08:18.874Z,16.70
2018-05-19T03:10:47.225Z,12.37
2018-05-19T03:13:15.559Z,11.63
2018-05-19T03:15:43.842Z,14.50
2018-05-19T03:18:12.142Z,15.20
2018-05-19T03:20:40.481Z,12.37
2018-05-19T03:23:08.771Z,13.33
2018-05-19T03:25:37.358Z,15.77
2018-05-19T03:28:05.946Z,16.20
2018-05-19T03:30:34.302Z,15.60
2018-05-19T03:33:02.636Z,13.00
2018-05-19T03:35:31.192Z,17.90
2018-05-19T03:37:59.513Z,15.03
2018-05-19T03:40:27.887Z,12.03
2018-05-19T03:42:56.182Z,12.83
2018-05-19T03:45:24.469Z,14.87
2018-05-19T03:47:52.792Z,13.90
2018-05-19T03:50:21.483Z,11.50
2018-05-19T03:52:50.030Z,15.93
2018-05-19T03:55:18.391Z,16.50
2018-05-19T03:57:58.639Z,15.43
2018-05-19T04:00:39.245Z,13.73
2018-05-19T04:03:07.933Z,15.83
2018-05-19T04:05:36.642Z,14.10
2018-05-19T04:08:04.961Z,14.00
2018-05-19T04:10:33.253Z,14.33
2018-05-19T04:13:01.980Z,13.80
2018-05-19T04:15:30.325Z,13.50
2018-05-19T04:17:58.902Z,13.70
2018-05-19T04:20:27.187Z,11.83
2018-05-19T04:22:55.489Z,12.60
2018-05-19T04:25:23.809Z,12.90
2018-05-19T04:27:52.103Z,14.10
2018-05-19T04:30:20.419Z,12.03
2018-05-19T04:32:49.483Z,11.30
2018-05-19T04:35:17.789Z,14.17
2018-05-19T04:37:46.120Z,13.00
2018-05-19T04:40:14.503Z,13.40
2018-05-19T04:42:42.797Z,14.60
2018-05-19T04:45:11.118Z,14.73
2018-05-19T04:47:39.436Z,12.70
2018-05-19T04:50:07.713Z,12.90
2018-05-19T04:52:36.182Z,11.13
2018-05-19T04:55:04.782Z,12.10
2018-05-19T04:57:33.074Z,12.60
2018-05-19T05:00:02.057Z,13.93
2018-05-19T05:02:30.391Z,13.90
2018-05-19T05:04:58.713Z,11.33
2018-05-19T05:07:27.451Z,13.17
2018-05-19T05:09:55.734Z,12.20
2018-05-19T05:12:24.014Z,11.70
2018-05-19T05:14:52.391Z,11.33
2018-05-19T05:17:20.754Z,9.67
2018-05-19T05:19:49.092Z,10.43
2018-05-19T05:22:17.409Z,12.90
2018-05-19T05:24:45.705Z,13.40
2018-05-19T05:27:14.086Z,13.70
2018-05-19T05:29:42.333Z,13.20
2018-05-19T05:32:10.629Z,14.67
2018-05-19T05:34:39.028Z,13.40
2018-05-19T05:37:07.373Z,12.40
2018-05-19T05:39:35.666Z,15.27
2018-05-19T05:42:03.941Z,14.27
2018-05-19T05:44:32.349Z,14.20
2018-05-19T05:47:00.679Z,13.73
2018-05-19T05:49:28.990Z,13.63
2018-05-19T05:51:57.327Z,12.90
2018-05-19T05:54:25.617Z,13.27
2018-05-19T05:56:53.939Z,13.23
2018-05-19T05:59:22.362Z,12.80
2018-05-19T06:01:50.659Z,12.43
2018-05-19T06:04:18.974Z,11.90
2018-05-19T06:06:47.310Z,12.33
2018-05-19T06:09:15.626Z,13.27
2018-05-19T06:11:43.988Z,10.50
2018-05-19T06:14:12.329Z,11.63
2018-05-19T06:16:40.626Z,10.10
2018-05-19T06:19:09.023Z,10.17
2018-05-19T06:21:37.332Z,9.20
2018-05-19T06:24:05.654Z,8.70
2018-05-19T06:26:34.054Z,7.50
2018-05-19T06:29:02.462Z,7.00
2018-05-19T06:31:31.146Z,8.63
2018-05-19T06:33:59.443Z,8.27
2018-05-19T06:36:28.167Z,7.90
2018-05-19T06:38:56.917Z,6.80
2018-05-19T06:41:25.602Z,6.20
2018-05-19T06:43:54.341Z,5.90
2018-05-19T06:46:22.720Z,5.83
2018-05-19T06:48:51.010Z,5.27
2018-05-19T06:51:19.314Z,5.30
2018-05-19T06:53:47.605Z,5.67
2018-05-19T06:56:15.958Z,5.10
2018-05-19T06:58:45.461Z,4.93
2018-05-19T07:01:13.810Z,4.50
2018-05-19T07:03:42.166Z,4.07
2018-05-19T07:06:10.479Z,4.40
2018-05-19T07:08:39.039Z,4.60
2018-05-19T07:11:07.350Z,4.00
2018-05-19T07:13:35.682Z,4.30
2018-05-19T07:16:04.800Z,3.90
2018-05-19T07:18:33.092Z,3.80
2018-05-19T07:21:01.861Z,3.70
2018-05-19T07:23:30.160Z,3.70
2018-05-19T07:25:58.517Z,3.30
2018-05-19T07:28:26.846Z,3.40
2018-05-19T07:30:55.275Z,2.80
2018-05-19T07:33:23.931Z,3.00
2018-05-19T07:35:53.058Z,3.00
2018-05-19T07:38:21.588Z,2.80
2018-05-19T07:40:50.224Z,2.97
2018-05-19T07:43:18.829Z,2.60
2018-05-19T07:45:47.514Z,2.80
2018-05-19T07:48:15.797Z,2.60
2018-05-19T07:50:44.509Z,2.47
2018-05-19T07:53:13.461Z,2.83
2018-05-19T07:55:41.757Z,2.40
2018-05-19T07:58:11.151Z,2.57
2018-05-19T08:00:40.338Z,2.43
2018-05-19T08:03:09.212Z,2.63
2018-05-19T08:05:37.555Z,2.20
2018-05-19T08:08:05.839Z,2.90
2018-05-19T08:10:34.121Z,2.67
2018-05-19T08:13:02.824Z,2.30
2018-05-19T08:15:31.207Z,2.20
2018-05-19T08:17:59.520Z,2.13
2018-05-19T08:20:28.232Z,2.60
2018-05-19T08:22:56.798Z,2.40
2018-05-19T08:25:25.462Z,2.40
2018-05-19T08:27:53.753Z,2.37
2018-05-19T08:30:22.506Z,2.53
2018-05-19T08:32:50.800Z,1.97
2018-05-19T08:35:19.377Z,1.90
2018-05-19T08:37:47.659Z,2.20
2018-05-19T08:40:15.924Z,1.90
2018-05-19T08:42:44.249Z,2.10
2018-05-19T08:45:12.668Z,2.00
2018-05-19T08:47:40.945Z,1.90
2018-05-19T08:50:09.257Z,2.07
2018-05-19T08:52:38.230Z,1.90
2018-05-19T08:55:06.522Z,1.70
2018-05-19T08:57:34.935Z,2.10
2018-05-19T09:00:03.228Z,2.57
2018-05-19T09:02:31.516Z,2.20
2018-05-19T09:04:59.821Z,1.60
2018-05-19T09:07:28.095Z,1.70
2018-05-19T09:09:56.370Z,1.77
2018-05-19T09:12:24.690Z,2.20
2018-05-19T09:14:53.512Z,2.10
2018-05-19T09:17:21.786Z,1.80
2018-05-19T09:19:50.085Z,1.90
2018-05-19T09:22:18.372Z,1.50
2018-05-19T09:24:46.666Z,1.60
2018-05-19T09:27:15.710Z,1.60
2018-05-19T09:29:43.992Z,1.60
2018-05-19T09:32:12.238Z,1.87
2018-05-19T09:34:40.558Z,1.70
2018-05-19T09:37:08.891Z,1.83
2018-05-19T09:39:37.715Z,1.37
2018-05-19T09:42:06.022Z,1.77
2018-05-19T09:44:34.343Z,1.90
2018-05-19T09:47:02.633Z,1.57
2018-05-19T09:49:30.950Z,1.67
2018-05-19T09:51:59.229Z,1.63
2018-05-19T09:54:27.834Z,1.30
2018-05-19T09:56:56.153Z,1.40
2018-05-19T09:59:24.586Z,1.77
2018-05-19T10:01:52.801Z,1.40
2018-05-19T10:04:21.092Z,1.70
2018-05-19T10:06:49.422Z,1.80
2018-05-19T10:09:17.972Z,1.50
2018-05-19T10:11:46.276Z,1.43
2018-05-19T10:14:14.617Z,1.40
2018-05-19T10:16:43.317Z,1.70
2018-05-19T10:19:11.592Z,1.47
2018-05-19T10:21:40.166Z,1.30
2018-05-19T10:24:08.742Z,2.53
2018-05-19T10:26:37.755Z,1.90
2018-05-19T10:29:06.101Z,1.63
2018-05-19T10:31:34.392Z,2.00
2018-05-19T10:34:03.569Z,1.80
2018-05-19T10:36:31.848Z,2.80
2018-05-19T10:39:00.145Z,1.50
2018-05-19T10:41:28.462Z,1.50
2018-05-19T10:43:56.737Z,2.27
2018-05-19T10:46:25.090Z,1.63
2018-05-19T10:48:53.666Z,1.90
2018-05-19T10:51:21.959Z,2.20
2018-05-19T10:53:50.639Z,1.87
2018-05-19T10:56:19.340Z,1.97
2018-05-19T10:58:48.075Z,1.83
2018-05-19T11:01:16.371Z,1.30
2018-05-19T11:03:44.704Z,1.77
2018-05-19T11:06:13.005Z,1.40
2018-05-19T11:08:41.766Z,1.80
2018-05-19T11:11:10.078Z,1.60
2018-05-19T11:13:38.382Z,2.90
2018-05-19T11:16:07.054Z,2.10
2018-05-19T11:18:35.467Z,1.80
2018-05-19T11:21:03.724Z,2.10
2018-05-19T11:23:32.404Z,2.00
2018-05-19T11:26:00.757Z,1.63
2018-05-19T11:28:29.758Z,1.80
2018-05-19T11:30:58.034Z,1.50
2018-05-19T11:33:26.559Z,1.80
2018-05-19T11:35:54.920Z,1.90
2018-05-19T11:38:23.220Z,1.80
2018-05-19T11:40:51.574Z,2.30
2018-05-19T11:43:20.243Z,1.80
2018-05-19T11:45:48.597Z,1.93
2018-05-19T11:48:16.977Z,1.80
2018-05-19T11:50:45.364Z,1.60
2018-05-19T11:53:13.968Z,1.90
2018-05-19T11:55:42.269Z,1.60
2018-05-19T11:58:10.813Z,1.53
2018-05-19T12:00:39.093Z,1.50
2018-05-19T12:03:07.371Z,1.53
2018-05-19T12:05:35.727Z,1.47
2018-05-19T12:08:04.042Z,1.60
2018-05-19T12:10:33.015Z,1.50
2018-05-19T12:13:01.289Z,1.50
2018-05-19T12:15:29.576Z,1.50
2018-05-19T12:17:57.863Z,1.63
2018-05-19T12:20:26.534Z,1.60
2018-05-19T12:22:54.871Z,1.57
2018-05-19T12:25:23.157Z,1.60
2018-05-19T12:27:51.449Z,1.60
2018-05-19T12:30:19.747Z,1.70
2018-05-19T12:32:48.030Z,1.40
2018-05-19T12:35:16.712Z,1.40
2018-05-19T12:37:45.032Z,1.70
2018-05-19T12:40:13.562Z,1.40
2018-05-19T12:42:41.848Z,1.53
2018-05-19T12:45:10.275Z,1.43
2018-05-19T12:47:38.571Z,1.50
2018-05-19T12:50:06.848Z,2.40
2018-05-19T12:52:35.172Z,1.90
2018-05-19T12:55:04.131Z,2.30
2018-05-19T12:57:32.406Z,1.97
2018-05-19T13:00:00.694Z,1.80
2018-05-19T13:02:29.002Z,1.50
2018-05-19T13:04:57.323Z,1.97
2018-05-19T13:07:25.613Z,1.50
2018-05-19T13:09:53.892Z,2.20
2018-05-19T13:12:22.474Z,1.70
2018-05-19T13:14:51.058Z,2.10
2018-05-19T13:17:20.225Z,2.07
2018-05-19T13:19:48.539Z,2.40
2018-05-19T13:22:16.880Z,2.50
2018-05-19T13:24:45.154Z,2.60
2018-05-19T13:27:13.487Z,2.03
2018-05-19T13:29:42.046Z,2.07
2018-05-19T13:32:10.336Z,1.90
2018-05-19T13:34:38.964Z,1.87
2018-05-19T13:37:07.247Z,2.17
2018-05-19T13:39:35.551Z,2.10
2018-05-19T13:42:03.872Z,2.10
2018-05-19T13:44:32.548Z,1.90
2018-05-19T13:47:01.461Z,2.10
2018-05-19T13:49:29.802Z,1.90
2018-05-19T13:51:58.528Z,2.03
2018-05-19T13:54:26.823Z,1.90
2018-05-19T13:56:55.165Z,2.13
2018-05-19T13:59:23.471Z,1.87
2018-05-19T14:01:51.810Z,2.10
2018-05-19T14:04:20.104Z,2.40
2018-05-19T14:06:48.397Z,2.17
2018-05-19T14:09:16.712Z,2.00
2018-05-19T14:11:45.010Z,2.07
2018-05-19T14:14:13.696Z,2.00
2018-05-19T14:16:42.410Z,2.00
2018-05-19T14:19:10.744Z,1.90
2018-05-19T14:21:39.058Z,1.97
2018-05-19T14:24:07.391Z,1.93
2018-05-19T14:26:35.676Z,2.10
2018-05-19T14:29:03.977Z,2.20
2018-05-19T14:31:32.693Z,2.20
2018-05-19T14:34:01.014Z,1.90
2018-05-19T14:36:29.725Z,2.00
2018-05-19T14:38:58.442Z,2.20
2018-05-19T14:41:26.740Z,2.00
2018-05-19T14:43:55.475Z,2.30
2018-05-19T14:46:24.190Z,2.00
2018-05-19T14:48:52.479Z,2.20
2018-05-19T14:51:20.803Z,2.30
2018-05-19T14:53:49.147Z,2.00
2018-05-19T14:56:17.440Z,2.10
2018-05-19T14:58:45.855Z,2.00
2018-05-19T15:01:14.540Z,2.10
2018-05-19T15:03:42.866Z,2.37
2018-05-19T15:06:11.301Z,2.30
2018-05-19T15:08:39.626Z,2.00
2018-05-19T15:11:07.940Z,2.00
2018-05-19T15:13:36.317Z,2.20
2018-05-19T15:16:05.298Z,2.03
2018-05-19T15:18:33.584Z,1.97
2018-05-19T15:21:02.267Z,1.77
2018-05-19T15:23:30.950Z,2.13
2018-05-19T15:25:59.927Z,2.40
2018-05-19T15:28:28.251Z,2.00
2018-05-19T15:30:56.556Z,2.60
2018-05-19T15:33:24.829Z,1.90
2018-05-19T15:35:53.129Z,2.20
2018-05-19T15:38:21.449Z,2.10
2018-05-19T15:40:50.115Z,2.30
2018-05-19T15:43:18.394Z,2.27
2018-05-19T15:45:46.838Z,1.90
2018-05-19T15:48:15.120Z,1.90
2018-05-19T15:50:43.410Z,1.93
2018-05-19T15:53:11.787Z,2.17
2018-05-19T15:55:40.117Z,2.00
2018-05-19T15:58:08.661Z,2.17
2018-05-19T16:00:37.370Z,2.20
2018-05-19T16:03:05.689Z,2.47
2018-05-19T16:05:34.102Z,2.20
2018-05-19T16:08:02.604Z,2.10
2018-05-19T16:10:30.922Z,2.20
2018-05-19T16:12:59.575Z,1.97
2018-05-19T16:15:27.898Z,2.30
2018-05-19T16:17:56.180Z,2.10
2018-05-19T16:20:24.479Z,2.30
2018-05-19T16:22:53.217Z,2.30
2018-05-19T16:25:21.524Z,2.00
2018-05-19T16:27:49.882Z,1.87
2018-05-19T16:30:18.768Z,2.50
2018-05-19T16:32:47.074Z,2.40
2018-05-19T16:35:15.360Z,2.53
2018-05-19T16:37:44.079Z,2.37
2018-05-19T16:40:12.395Z,2.20
2018-05-19T16:42:40.693Z,2.13
2018-05-19T16:45:09.412Z,2.67
2018-05-19T16:47:37.701Z,2.40
2018-05-19T16:50:06.012Z,2.67
2018-05-19T16:52:34.302Z,2.60
2018-05-19T16:55:03.300Z,2.47
2018-05-19T16:57:31.652Z,2.20
2018-05-19T16:59:59.992Z,2.33
2018-05-19T17:02:28.291Z,2.30
2018-05-19T17:04:56.595Z,2.10
2018-05-19T17:07:24.913Z,2.60
2018-05-19T17:09:53.600Z,2.47
2018-05-19T17:12:21.985Z,2.30
2018-05-19T17:14:50.298Z,2.50
2018-05-19T17:17:18.598Z,2.20
2018-05-19T17:19:47.326Z,2.37
2018-05-19T17:22:15.645Z,2.50
2018-05-19T17:24:43.935Z,2.43
2018-05-19T17:27:12.244Z,2.40
2018-05-19T17:29:40.960Z,2.27
2018-05-19T17:32:09.290Z,2.30
2018-05-19T17:34:37.867Z,2.67
2018-05-19T17:37:06.179Z,2.30
2018-05-19T17:39:34.467Z,2.53
2018-05-19T17:42:02.797Z,2.27
2018-05-19T17:44:31.534Z,2.00
2018-05-19T17:46:59.856Z,2.23
2018-05-19T17:49:28.169Z,2.70
2018-05-19T17:51:56.465Z,2.33
2018-05-19T17:54:24.758Z,2.40
2018-05-19T17:56:53.066Z,2.57
2018-05-19T17:59:21.393Z,2.50
2018-05-19T18:01:50.025Z,2.77
2018-05-19T18:04:18.604Z,2.47
2018-05-19T18:06:46.940Z,2.27
2018-05-19T18:09:15.256Z,2.30
2018-05-19T18:11:43.577Z,2.57
2018-05-19T18:14:11.916Z,2.50
2018-05-19T18:16:40.341Z,2.30
2018-05-19T18:19:09.809Z,2.73
2018-05-19T18:21:38.142Z,2.50
2018-05-19T18:24:06.456Z,2.70
2018-05-19T18:26:34.778Z,2.67
2018-05-19T18:29:03.364Z,2.77
2018-05-19T18:31:31.652Z,2.50
2018-05-19T18:34:00.005Z,2.90
2018-05-19T18:36:28.439Z,2.67
2018-05-19T18:38:56.747Z,2.70
2018-05-19T18:41:25.446Z,2.50
2018-05-19T18:43:53.788Z,2.63
2018-05-19T18:46:22.081Z,2.60
2018-05-19T18:48:50.399Z,2.50
2018-05-19T18:51:18.749Z,2.97
2018-05-19T18:53:47.075Z,3.03
2018-05-19T18:56:15.369Z,2.60
2018-05-19T18:58:43.949Z,2.90
2018-05-19T19:01:12.265Z,2.60
2018-05-19T19:03:40.604Z,2.60
2018-05-19T19:06:08.967Z,2.70
2018-05-19T19:08:37.352Z,2.30
2018-05-19T19:11:05.751Z,2.40
2018-05-19T19:13:34.108Z,3.03
2018-05-19T19:16:02.492Z,2.60
2018-05-19T19:18:30.887Z,2.20
2018-05-19T19:20:59.162Z,2.37
2018-05-19T19:23:27.752Z,2.60
2018-05-19T19:25:56.474Z,2.20
2018-05-19T19:28:24.810Z,2.30
2018-05-19T19:30:53.165Z,2.90
2018-05-19T19:33:21.486Z,2.10
2018-05-19T19:35:50.204Z,2.50
2018-05-19T19:38:18.506Z,2.60
2018-05-19T19:40:46.799Z,3.00
2018-05-19T19:43:15.102Z,2.73
2018-05-19T19:45:43.799Z,2.60
2018-05-19T19:48:12.096Z,2.70
2018-05-19T19:50:40.570Z,2.50
2018-05-19T19:53:08.933Z,2.97
2018-05-19T19:55:37.280Z,2.60
2018-05-19T19:58:05.593Z,2.77
2018-05-19T20:00:33.901Z,3.20
2018-05-19T20:03:02.225Z,2.80
2018-05-19T20:05:30.958Z,2.90
2018-05-19T20:07:59.245Z,2.53
2018-05-19T20:10:27.526Z,2.43
2018-05-19T20:12:55.939Z,3.20
2018-05-19T20:15:24.667Z,2.63
2018-05-19T20:17:52.971Z,2.40
2018-05-19T20:20:21.365Z,2.70
2018-05-19T20:22:49.618Z,3.00
2018-05-19T20:25:18.030Z,2.73
2018-05-19T20:27:46.342Z,2.57
2018-05-19T20:30:14.649Z,3.00
2018-05-19T20:32:43.257Z,3.00
2018-05-19T20:35:11.594Z,3.00
2018-05-19T20:37:39.875Z,3.00
2018-05-19T20:40:08.512Z,3.30
2018-05-19T20:42:37.307Z,2.93
2018-05-19T20:45:05.598Z,3.20
2018-05-19T20:47:33.930Z,3.23
2018-05-19T20:50:02.279Z,3.03
2018-05-19T20:52:30.953Z,3.30
2018-05-19T20:54:59.641Z,3.00
2018-05-19T20:57:27.930Z,2.97
2018-05-19T20:59:56.280Z,2.90
2018-05-19T21:02:24.971Z,2.80
2018-05-19T21:04:53.843Z,3.10
2018-05-19T21:07:22.590Z,2.93
2018-05-19T21:09:50.863Z,3.30
2018-05-19T21:12:19.161Z,2.80
2018-05-19T21:14:47.507Z,3.00
2018-05-19T21:17:15.783Z,2.87
2018-05-19T21:19:44.203Z,3.10
2018-05-19T21:22:12.902Z,3.17
2018-05-19T21:24:41.892Z,2.93
2018-05-19T21:27:10.461Z,3.03
2018-05-19T21:29:38.736Z,2.83
2018-05-19T21:32:07.416Z,2.63
2018-05-19T21:34:35.745Z,2.77
2018-05-19T21:37:04.022Z,3.10
2018-05-19T21:39:32.293Z,2.67
2018-05-19T21:42:00.629Z,2.63
2018-05-19T21:44:28.905Z,2.40
2018-05-19T21:46:57.290Z,2.53
2018-05-19T21:49:25.882Z,2.50
2018-05-19T21:51:54.554Z,2.40
2018-05-19T21:54:22.865Z,2.40
2018-05-19T21:56:51.216Z,2.67
2018-05-19T21:59:19.521Z,2.60
2018-05-19T22:01:48.401Z,2.47
2018-05-19T22:04:16.827Z,2.20
2018-05-19T22:06:45.106Z,2.77
2018-05-19T22:09:13.381Z,2.60
2018-05-19T22:11:41.725Z,2.50
2018-05-19T22:14:10.003Z,2.43
2018-05-19T22:16:38.538Z,2.60
2018-05-19T22:19:06.849Z,2.53
2018-05-19T22:21:35.127Z,2.57
2018-05-19T22:24:03.407Z,2.73
2018-05-19T22:26:31.866Z,2.30
2018-05-19T22:29:00.147Z,2.53
2018-05-19T22:31:28.813Z,2.10
2018-05-19T22:33:57.125Z,2.33
2018-05-19T22:36:25.453Z,1.87
2018-05-19T22:38:54.046Z,2.30
2018-05-19T22:41:22.746Z,2.47
2018-05-19T22:43:51.018Z,2.27
2018-05-19T22:46:19.302Z,2.27
2018-05-19T22:48:48.021Z,2.20
2018-05-19T22:51:16.297Z,2.43
2018-05-19T22:53:44.638Z,2.13
2018-05-19T22:56:12.966Z,2.20
2018-05-19T22:58:41.242Z,2.27
2018-05-19T23:01:09.518Z,2.10
2018-05-19T23:03:37.859Z,2.70
2018-05-19T23:06:06.412Z,2.20
2018-05-19T23:08:34.690Z,2.10
2018-05-19T23:11:02.983Z,2.00
2018-05-19T23:13:31.281Z,2.03
2018-05-19T23:15:59.563Z,2.20
2018-05-19T23:18:27.882Z,2.37
2018-05-19T23:20:56.186Z,2.30
2018-05-19T23:23:24.755Z,2.40
2018-05-19T23:25:53.069Z,2.10
2018-05-19T23:28:21.367Z,2.10
2018-05-19T23:30:49.650Z,2.20
2018-05-19T23:33:17.996Z,1.93
2018-05-19T23:35:46.732Z,2.30
2018-05-19T23:38:15.004Z,1.80
2018-05-19T23:40:43.314Z,2.00
2018-05-19T23:43:11.660Z,1.60
2018-05-19T23:45:39.938Z,2.10
2018-05-19T23:48:08.245Z,1.90
2018-05-19T23:50:36.540Z,2.40
2018-05-19T23:53:04.834Z,2.07
2018-05-19T23:55:33.149Z,1.90
2018-05-19T23:58:01.479Z,1.80
